createdAt,value
2023-05-23T00:17:03.616Z,95648.00
2023-05-23T00:28:53.168Z,95652.00
2023-05-23T00:36:42.587Z,95659.00
2023-05-23T00:38:40.287Z,95653.00
2023-05-23T00:44:41.910Z,95662.00
2023-05-23T01:06:04.480Z,95665.00
2023-05-23T01:14:35.446Z,95672.00
2023-05-23T01:18:31.925Z,95667.00
2023-05-23T01:22:41.771Z,95679.00
2023-05-23T01:34:24.734Z,95672.00
2023-05-23T01:37:47.095Z,95669.00
2023-05-23T01:55:17.495Z,95679.00
2023-05-23T01:58:53.288Z,95684.00
2023-05-23T02:03:16.070Z,95678.00
2023-05-23T02:18:56.309Z,95684.00
2023-05-23T02:22:36.523Z,95681.00
2023-05-23T02:33:24.623Z,95691.00
2023-05-23T02:34:14.737Z,95694.00
2023-05-23T02:42:24.647Z,95701.00
2023-05-23T02:46:00.658Z,95707.00
2023-05-23T02:49:49.692Z,95707.00
2023-05-23T02:53:25.785Z,95707.00
2023-05-23T03:14:14.122Z,95704.00
2023-05-23T03:23:40.616Z,95702.00
2023-05-23T03:31:35.865Z,95705.00
2023-05-23T03:42:15.752Z,95702.00
2023-05-23T03:45:01.629Z,95704.00
2023-05-23T03:47:48.430Z,95700.00
2023-05-23T03:50:38.243Z,95710.00
2023-05-23T03:53:26.305Z,95711.00
2023-05-23T03:56:12.849Z,95704.00
2023-05-23T03:58:59.624Z,95726.00
2023-05-23T04:01:45.769Z,95710.00
2023-05-23T04:04:32.346Z,95719.00
2023-05-23T04:07:21.401Z,95717.00
2023-05-23T04:10:08.635Z,95715.00
2023-05-23T04:12:54.520Z,95726.00
2023-05-23T04:15:47.597Z,95727.00
2023-05-23T04:18:39.290Z,95726.00
2023-05-23T04:21:26.805Z,95731.00
2023-05-23T04:24:23.804Z,95738.00
2023-05-23T04:27:10.348Z,95740.00
2023-05-23T04:29:58.655Z,95740.00
2023-05-23T04:32:45.037Z,95737.00
2023-05-23T04:35:34.330Z,95750.00
2023-05-23T04:38:22.844Z,95742.00
2023-05-23T04:41:12.973Z,95744.00
2023-05-23T04:44:18.355Z,95746.00
2023-05-23T04:47:28.281Z,95746.00
2023-05-23T04:50:22.944Z,95752.00
2023-05-23T04:53:09.707Z,95743.00
2023-05-23T04:55:56.612Z,95733.00
2023-05-23T04:58:44.462Z,95754.00
2023-05-23T05:01:32.032Z,95752.00
2023-05-23T05:04:19.348Z,95756.00
2023-05-23T05:07:05.577Z,95759.00
2023-05-23T05:09:55.315Z,95751.00
2023-05-23T05:12:44.399Z,95756.00
2023-05-23T05:15:30.645Z,95763.00
2023-05-23T05:18:17.693Z,95756.00
2023-05-23T05:21:04.276Z,95759.00
2023-05-23T05:23:50.499Z,95761.00
2023-05-23T05:26:37.787Z,95758.00
2023-05-23T05:29:24.074Z,95764.00
2023-05-23T05:32:10.796Z,95767.00
2023-05-23T05:34:56.900Z,95767.00
2023-05-23T05:38:08.672Z,95773.00
2023-05-23T05:41:09.099Z,95782.00
2023-05-23T05:43:59.274Z,95777.00
2023-05-23T05:46:45.689Z,95777.00
2023-05-23T05:49:31.610Z,95777.00
2023-05-23T05:53:39.288Z,95791.00
2023-05-23T05:56:26.421Z,95789.00
2023-05-23T05:59:13.888Z,95789.00
2023-05-23T06:02:01.402Z,95794.00
2023-05-23T06:04:48.508Z,95803.00
2023-05-23T06:07:36.213Z,95802.00
2023-05-23T06:10:22.243Z,95807.00
2023-05-23T06:13:18.813Z,95809.00
2023-05-23T06:16:10.083Z,95811.00
2023-05-23T06:18:56.863Z,95810.00
2023-05-23T06:21:44.280Z,95817.00
2023-05-23T06:24:31.102Z,95818.00
2023-05-23T06:27:16.446Z,95814.00
2023-05-23T06:30:03.229Z,95821.00
2023-05-23T06:32:49.600Z,95819.00
2023-05-23T06:35:38.383Z,95821.00
2023-05-23T06:38:24.860Z,95828.00
2023-05-23T06:41:10.714Z,95827.00
2023-05-23T06:43:57.272Z,95822.00
2023-05-23T06:46:48.231Z,95823.00
2023-05-23T06:49:35.247Z,95823.00
2023-05-23T06:52:21.123Z,95817.00
2023-05-23T06:55:19.553Z,95826.00
2023-05-23T06:58:09.918Z,95822.00
2023-05-23T07:00:58.143Z,95811.00
2023-05-23T07:03:53.200Z,95820.00
2023-05-23T07:06:40.234Z,95824.00
2023-05-23T07:09:29.484Z,95832.00
2023-05-23T07:12:29.696Z,95829.00
2023-05-23T07:15:22.828Z,95825.00
2023-05-23T07:18:20.868Z,95832.00
2023-05-23T07:21:07.770Z,95839.00
2023-05-23T07:23:56.397Z,95837.00
2023-05-23T07:26:43.490Z,95827.00
2023-05-23T07:29:32.054Z,95836.00
2023-05-23T07:32:18.281Z,95831.00
2023-05-23T07:35:07.139Z,95830.00
2023-05-23T07:37:54.033Z,95823.00
2023-05-23T07:40:40.796Z,95833.00
2023-05-23T07:43:27.523Z,95830.00
2023-05-23T07:46:13.384Z,95834.00
2023-05-23T07:48:59.719Z,95840.00
2023-05-23T07:51:48.966Z,95845.00
2023-05-23T07:54:35.127Z,95840.00
2023-05-23T07:57:24.513Z,95838.00
2023-05-23T08:00:15.043Z,95831.00
2023-05-23T08:03:04.804Z,95844.00
2023-05-23T08:05:57.494Z,95842.00
2023-05-23T08:08:44.266Z,95837.00
2023-05-23T08:11:31.167Z,95840.00
2023-05-23T08:14:17.202Z,95848.00
2023-05-23T08:17:13.518Z,95852.00
2023-05-23T08:20:02.504Z,95856.00
2023-05-23T08:22:49.669Z,95855.00
2023-05-23T08:25:36.005Z,95851.00
2023-05-23T08:28:21.897Z,95864.00
2023-05-23T08:31:12.529Z,95860.00
2023-05-23T08:33:59.460Z,95862.00
2023-05-23T08:36:45.560Z,95869.00
2023-05-23T08:39:36.109Z,95873.00
2023-05-23T08:42:44.943Z,95869.00
2023-05-23T08:45:35.267Z,95869.00
2023-05-23T08:48:21.937Z,95874.00
2023-05-23T08:51:14.851Z,95872.00
2023-05-23T08:54:03.895Z,95864.00
2023-05-23T08:56:50.037Z,95875.00
2023-05-23T08:59:48.604Z,95870.00
2023-05-23T09:02:47.994Z,95872.00
2023-05-23T09:05:56.066Z,95890.00
2023-05-23T09:13:34.508Z,95893.00
2023-05-23T09:16:27.784Z,95887.00
2023-05-23T09:19:16.930Z,95887.00
2023-05-23T09:22:11.854Z,95890.00
2023-05-23T09:25:10.772Z,95881.00
2023-05-23T09:28:01.656Z,95879.00
2023-05-23T09:31:07.357Z,95881.00
2023-05-23T09:33:54.845Z,95881.00
2023-05-23T09:36:47.291Z,95879.00
2023-05-23T09:39:49.509Z,95868.00
2023-05-23T09:42:44.651Z,95872.00
2023-05-23T09:45:32.917Z,95868.00
2023-05-23T09:48:27.574Z,95866.00
2023-05-23T09:51:23.966Z,95866.00
2023-05-23T09:54:10.433Z,95873.00
2023-05-23T09:57:01.802Z,95865.00
2023-05-23T09:59:55.913Z,95864.00
2023-05-23T10:06:19.904Z,95879.00
2023-05-23T10:09:09.332Z,95867.00
2023-05-23T10:12:49.150Z,95862.00
2023-05-23T10:15:45.012Z,95867.00
2023-05-23T10:19:05.158Z,95863.00
2023-05-23T10:22:01.343Z,95860.00
2023-05-23T10:24:48.810Z,95860.00
2023-05-23T10:27:35.392Z,95855.00
2023-05-23T10:30:22.009Z,95865.00
2023-05-23T10:33:09.538Z,95864.00
2023-05-23T10:36:11.839Z,95868.00
2023-05-23T10:39:23.330Z,95870.00
2023-05-23T10:42:43.149Z,95877.00
2023-05-23T10:45:32.506Z,95868.00
2023-05-23T10:48:23.954Z,95869.00
2023-05-23T10:51:12.358Z,95867.00
2023-05-23T10:53:58.328Z,95875.00
2023-05-23T10:56:45.047Z,95864.00
2023-05-23T10:59:30.906Z,95861.00
2023-05-23T11:02:27.006Z,95866.00
2023-05-23T11:05:24.960Z,95872.00
2023-05-23T11:08:15.220Z,95866.00
2023-05-23T11:11:03.800Z,95860.00
2023-05-23T11:13:57.648Z,95868.00
2023-05-23T11:16:49.358Z,95861.00
2023-05-23T11:19:35.823Z,95858.00
2023-05-23T11:22:26.140Z,95873.00
2023-05-23T11:25:13.229Z,95871.00
2023-05-23T11:27:59.573Z,95861.00
2023-05-23T11:30:49.788Z,95872.00
2023-05-23T11:33:36.291Z,95861.00
2023-05-23T11:36:23.081Z,95866.00
2023-05-23T11:39:09.672Z,95859.00
2023-05-23T11:42:03.938Z,95859.00
2023-05-23T11:44:54.322Z,95868.00
2023-05-23T11:47:43.592Z,95857.00
2023-05-23T11:50:29.449Z,95869.00
2023-05-23T11:53:19.148Z,95870.00
2023-05-23T11:56:05.846Z,95870.00
2023-05-23T11:58:52.339Z,95863.00
2023-05-23T12:01:38.568Z,95857.00
2023-05-23T12:04:27.509Z,95846.00
2023-05-23T12:07:13.555Z,95850.00
2023-05-23T12:10:00.138Z,95854.00
2023-05-23T12:12:52.341Z,95850.00
2023-05-23T12:15:40.501Z,95853.00
2023-05-23T12:18:30.839Z,95850.00
2023-05-23T12:21:16.967Z,95851.00
2023-05-23T12:24:19.445Z,95844.00
2023-05-23T12:27:05.950Z,95849.00
2023-05-23T12:29:52.727Z,95847.00
2023-05-23T12:32:45.735Z,95846.00
2023-05-23T12:35:32.041Z,95854.00
2023-05-23T12:38:18.109Z,95851.00
2023-05-23T12:41:23.577Z,95843.00
2023-05-23T12:44:10.433Z,95850.00
2023-05-23T12:46:57.011Z,95862.00
2023-05-23T12:49:47.497Z,95866.00
2023-05-23T12:52:34.077Z,95868.00
2023-05-23T12:55:23.189Z,95860.00
2023-05-23T12:58:16.019Z,95867.00
2023-05-23T13:01:10.088Z,95862.00
2023-05-23T13:03:56.502Z,95868.00
2023-05-23T13:06:42.964Z,95853.00
2023-05-23T13:09:28.947Z,95853.00
2023-05-23T13:12:15.712Z,95858.00
2023-05-23T13:15:01.746Z,95869.00
2023-05-23T13:17:51.414Z,95864.00
2023-05-23T13:20:38.123Z,95862.00
2023-05-23T13:23:26.017Z,95865.00
2023-05-23T13:26:12.450Z,95871.00
2023-05-23T13:28:58.811Z,95876.00
2023-05-23T13:31:45.063Z,95875.00
2023-05-23T13:34:31.577Z,95877.00
2023-05-23T13:37:17.808Z,95876.00
2023-05-23T13:40:05.893Z,95883.00
2023-05-23T13:42:53.896Z,95872.00
2023-05-23T13:45:40.159Z,95865.00
2023-05-23T13:48:30.148Z,95873.00
2023-05-23T13:51:16.400Z,95872.00
2023-05-23T13:54:08.403Z,95874.00
2023-05-23T13:56:58.603Z,95870.00
2023-05-23T13:59:44.917Z,95874.00
2023-05-23T14:02:32.777Z,95880.00
2023-05-23T14:05:21.761Z,95883.00
2023-05-23T14:08:08.435Z,95880.00
2023-05-23T14:10:55.218Z,95875.00
2023-05-23T14:13:41.633Z,95877.00
2023-05-23T14:17:41.504Z,95870.00
2023-05-23T14:19:46.239Z,95874.00
2023-05-23T14:22:32.297Z,95867.00
2023-05-23T14:25:23.139Z,95865.00
2023-05-23T14:28:13.857Z,95868.00
2023-05-23T14:31:05.493Z,95874.00
2023-05-23T14:33:51.905Z,95874.00
2023-05-23T14:40:23.658Z,95874.00
2023-05-23T14:43:10.479Z,95870.00
2023-05-23T14:45:56.710Z,95868.00
2023-05-23T14:48:45.415Z,95870.00
2023-05-23T14:54:29.073Z,95871.00
2023-05-23T14:57:15.682Z,95879.00
2023-05-23T15:00:08.940Z,95882.00
2023-05-23T15:02:55.799Z,95884.00
2023-05-23T15:05:48.153Z,95885.00
2023-05-23T15:08:35.950Z,95889.00
2023-05-23T15:11:22.398Z,95884.00
2023-05-23T15:14:08.798Z,95875.00
2023-05-23T15:16:56.647Z,95873.00
2023-05-23T15:19:44.908Z,95879.00
2023-05-23T15:25:47.292Z,95878.00
2023-05-23T15:28:27.522Z,95877.00
2023-05-23T15:31:16.911Z,95870.00
2023-05-23T15:34:08.060Z,95874.00
2023-05-23T15:36:55.345Z,95879.00
2023-05-23T15:39:42.248Z,95880.00
2023-05-23T15:42:28.628Z,95878.00
2023-05-23T15:45:16.304Z,95885.00
2023-05-23T15:48:02.527Z,95892.00
2023-05-23T15:50:48.474Z,95880.00
2023-05-23T15:53:40.111Z,95889.00
2023-05-23T15:56:37.174Z,95885.00
2023-05-23T15:59:23.131Z,95884.00
2023-05-23T16:02:10.290Z,95890.00
2023-05-23T16:04:58.501Z,95886.00
2023-05-23T16:07:44.723Z,95890.00
2023-05-23T16:10:34.541Z,95889.00
2023-05-23T16:13:20.667Z,95896.00
2023-05-23T16:16:07.569Z,95892.00
2023-05-23T16:18:56.546Z,95891.00
2023-05-23T16:21:48.081Z,95891.00
2023-05-23T16:24:35.903Z,95896.00
2023-05-23T16:27:24.127Z,95887.00
2023-05-23T16:30:10.841Z,95899.00
2023-05-23T16:32:57.811Z,95906.00
2023-05-23T16:35:46.673Z,95900.00
2023-05-23T16:38:33.668Z,95902.00
2023-05-23T16:41:24.755Z,95904.00
2023-05-23T16:44:22.319Z,95901.00
2023-05-23T16:47:11.149Z,95901.00
2023-05-23T16:49:57.659Z,95906.00
2023-05-23T16:52:47.238Z,95898.00
2023-05-23T16:55:35.495Z,95899.00
2023-05-23T16:58:50.860Z,95904.00
2023-05-23T17:02:19.793Z,95896.00
2023-05-23T17:20:53.081Z,95902.00
2023-05-23T17:48:31.422Z,95916.00
2023-05-23T18:01:31.742Z,95912.00
2023-05-23T18:04:53.915Z,95926.00
2023-05-23T18:10:17.362Z,95918.00
2023-05-23T18:29:30.382Z,95917.00
2023-05-23T18:32:33.554Z,95926.00
2023-05-23T18:35:40.682Z,95916.00
2023-05-23T19:16:21.166Z,95967.00
2023-05-23T19:19:10.596Z,95981.00
2023-05-23T20:10:11.968Z,96033.00
2023-05-23T20:20:45.481Z,96038.00
2023-05-23T20:23:45.801Z,96034.00
2023-05-23T20:26:56.695Z,96031.00
2023-05-23T20:30:29.494Z,96040.00
2023-05-23T21:32:10.440Z,96105.00
2023-05-23T21:34:57.261Z,96102.00
2023-05-23T21:37:46.511Z,96109.00
2023-05-23T21:40:32.621Z,96098.00
2023-05-23T21:43:19.334Z,96105.00
2023-05-23T21:46:14.934Z,96105.00
2023-05-23T21:49:04.710Z,96105.00
2023-05-23T21:51:54.201Z,96111.00
2023-05-23T21:54:40.447Z,96108.00
2023-05-23T21:57:31.046Z,96104.00
2023-05-23T22:00:24.256Z,96106.00
2023-05-23T22:03:12.868Z,96103.00
2023-05-23T22:06:04.694Z,96111.00
2023-05-23T22:08:53.393Z,96108.00
2023-05-23T22:11:40.641Z,96108.00
2023-05-23T22:18:40.357Z,96104.00
2023-05-23T22:38:00.633Z,96113.00
2023-05-23T22:40:47.177Z,96111.00
2023-05-23T22:43:34.574Z,96111.00
2023-05-23T22:46:22.973Z,96095.00
2023-05-23T22:52:29.954Z,96101.00
2023-05-23T22:55:26.339Z,96090.00
2023-05-23T22:58:15.870Z,96101.00
2023-05-23T23:01:06.980Z,96098.00
2023-05-23T23:03:53.351Z,96104.00
2023-05-23T23:07:00.847Z,96099.00
